Time;durP1;ratioP1;P1;durP2;ratioP2;P2;SDS_P1;SDS_P2;PMS_P1;PMS_P2;Temp;Humidity;BMP_temperature;BMP_pressure;BME280_temperature;BME280_humidity;BME280_pressure;Samples;Min_cycle;Max_cycle;Signal;HPM_P1;HPM_P2
2021/07/10 00:00:46;;;;;;;14.48;9.73;;;19.10;99.90;;;;;;5061342;28;20226;-77
2021/07/10 00:03:13;;;;;;;10.05;8.90;;;19.00;99.90;;;;;;5049470;28;20230;-77
2021/07/10 00:05:39;;;;;;;16.23;9.80;;;18.80;99.90;;;;;;5054146;28;20291;-77
2021/07/10 00:08:07;;;;;;;11.20;9.00;;;18.70;99.90;;;;;;5056689;28;20230;-77
2021/07/10 00:10:36;;;;;;;13.68;9.68;;;18.70;99.90;;;;;;5061349;28;20827;-77
2021/07/10 00:13:03;;;;;;;12.27;9.43;;;18.80;99.90;;;;;;5056969;28;20201;-77
2021/07/10 00:15:30;;;;;;;14.52;9.57;;;18.70;99.90;;;;;;5059454;28;20205;-77
2021/07/10 00:17:57;;;;;;;20.85;10.13;;;18.70;99.90;;;;;;5060754;28;20548;-78
2021/07/10 00:20:24;;;;;;;13.80;12.50;;;18.70;99.90;;;;;;5053838;28;20256;-78
2021/07/10 00:22:51;;;;;;;254.18;240.13;;;18.60;99.90;;;;;;5056634;28;20202;-77
2021/07/10 00:25:20;;;;;;;39.08;36.35;;;18.50;99.90;;;;;;5064133;28;20194;-77
2021/07/10 00:27:50;;;;;;;15.30;12.35;;;18.40;99.90;;;;;;5054602;28;20230;-77
2021/07/10 00:30:20;;;;;;;205.38;193.52;;;18.40;99.90;;;;;;5054343;28;20203;-77
2021/07/10 00:32:47;;;;;;;265.95;251.32;;;18.40;99.90;;;;;;5054726;28;20208;-77
2021/07/10 00:35:15;;;;;;;293.67;276.27;;;18.50;99.90;;;;;;5062213;28;20256;-76
2021/07/10 00:37:42;;;;;;;271.67;256.42;;;18.50;99.90;;;;;;5054751;28;20205;-77
2021/07/10 00:40:11;;;;;;;282.17;265.77;;;18.40;99.90;;;;;;5061287;28;20206;-78
2021/07/10 00:42:39;;;;;;;285.73;269.42;;;18.40;99.90;;;;;;5057478;28;20251;-77
2021/07/10 00:45:10;;;;;;;235.93;222.85;;;18.30;99.90;;;;;;5051338;28;20201;-77
2021/07/10 00:47:38;;;;;;;283.73;267.38;;;18.20;99.90;;;;;;5064118;28;20257;-77
2021/07/10 00:50:12;;;;;;;171.50;162.40;;;18.20;99.90;;;;;;5056496;28;20213;-77
2021/07/10 00:52:39;;;;;;;15.32;12.77;;;18.20;99.90;;;;;;5055164;28;20194;-77
2021/07/10 00:55:08;;;;;;;86.18;80.78;;;18.10;99.90;;;;;;5062529;28;20229;-77
2021/07/10 00:57:36;;;;;;;50.53;46.80;;;18.00;99.90;;;;;;5057181;28;20195;-77
2021/07/10 01:00:05;;;;;;;34.50;31.65;;;18.00;99.90;;;;;;5059051;28;20197;-77
2021/07/10 01:02:34;;;;;;;206.93;196.07;;;18.10;99.90;;;;;;5053396;28;20205;-78
2021/07/10 01:05:01;;;;;;;192.43;181.85;;;17.90;99.90;;;;;;5060196;28;20228;-78
2021/07/10 01:07:28;;;;;;;191.50;181.30;;;18.00;99.90;;;;;;5065943;28;20251;-78
2021/07/10 01:09:55;;;;;;;114.65;108.07;;;18.00;99.90;;;;;;5062608;28;20206;-78
2021/07/10 01:12:22;;;;;;;206.70;195.55;;;18.00;99.90;;;;;;5056457;28;20255;-78
2021/07/10 01:14:49;;;;;;;41.47;38.50;;;18.10;99.90;;;;;;5065982;28;20201;-78
2021/07/10 01:20:05;;;;;;;12.13;10.82;;;18.00;99.90;;;;;;5050465;28;20206;-78
2021/07/10 01:22:34;;;;;;;12.40;9.68;;;17.80;99.90;;;;;;5058220;28;20201;-77
2021/07/10 01:25:01;;;;;;;13.82;9.73;;;17.80;99.90;;;;;;5058782;28;20206;-77
2021/07/10 01:27:28;;;;;;;9.90;8.90;;;17.80;99.90;;;;;;5059158;28;20271;-77
2021/07/10 01:29:57;;;;;;;19.52;14.45;;;17.80;99.90;;;;;;5055915;28;20228;-77
2021/07/10 01:32:25;;;;;;;14.32;10.70;;;17.90;99.90;;;;;;5052252;28;20222;-77
2021/07/10 01:34:52;;;;;;;14.25;10.13;;;17.80;99.90;;;;;;5051906;28;20207;-77
2021/07/10 01:37:19;;;;;;;12.18;9.73;;;17.80;99.90;;;;;;5057861;28;20198;-78
2021/07/10 01:39:47;;;;;;;16.33;14.73;;;17.50;99.90;;;;;;5060422;28;20231;-79
2021/07/10 01:42:14;;;;;;;12.98;10.55;;;17.50;99.90;;;;;;5059470;28;20202;-80
2021/07/10 01:44:41;;;;;;;15.13;10.02;;;17.50;99.90;;;;;;5052826;28;20228;-79
2021/07/10 01:47:08;;;;;;;13.02;10.13;;;17.50;99.90;;;;;;5053797;28;20243;-79
2021/07/10 01:55:14;;;;;;;211.43;199.95;;;17.60;99.90;;;;;;5069329;28;20205;-80
2021/07/10 01:57:43;;;;;;;255.85;241.40;;;17.50;99.90;;;;;;5060826;28;20209;-79
2021/07/10 02:05:37;;;;;;;40.42;37.45;;;17.40;99.90;;;;;;5070227;28;20193;-78
2021/07/10 02:16:12;;;;;;;55.65;51.65;;;17.40;99.90;;;;;;5080345;28;20196;-79
2021/07/10 02:18:39;;;;;;;279.92;263.33;;;17.40;99.90;;;;;;5077998;28;20197;-78
2021/07/10 02:23:48;;;;;;;279.67;263.10;;;17.30;99.90;;;;;;5070597;28;20209;-78
2021/07/10 02:26:17;;;;;;;18.13;16.50;;;17.20;99.90;;;;;;5066336;28;20209;-79
2021/07/10 02:28:44;;;;;;;15.43;13.40;;;17.30;99.90;;;;;;5060700;28;20229;-79
2021/07/10 02:31:11;;;;;;;23.80;21.38;;;17.20;99.90;;;;;;5075219;28;20201;-78
2021/07/10 02:33:38;;;;;;;14.23;12.50;;;17.20;99.90;;;;;;5079729;28;20200;-78
2021/07/10 02:41:43;;;;;;;18.88;14.07;;;17.20;99.90;;;;;;5074659;28;20239;-79
2021/07/10 02:44:18;;;;;;;285.90;269.35;;;17.10;99.90;;;;;;5069617;28;20198;-79
2021/07/10 02:52:14;;;;;;;27.13;24.92;;;17.20;99.90;;;;;;5077053;28;20320;-80
2021/07/10 03:00:07;;;;;;;19.38;10.70;;;17.20;99.90;;;;;;5072291;28;20199;-80
2021/07/10 03:10:45;;;;;;;18.40;11.88;;;17.10;99.90;;;;;;5084608;28;20227;-80
2021/07/10 03:18:43;;;;;;;15.93;12.18;;;17.00;99.90;;;;;;5083177;28;20275;-80
2021/07/10 03:29:14;;;;;;;22.90;13.65;;;17.00;99.90;;;;;;5067842;28;20216;-79
2021/07/10 03:31:42;;;;;;;16.95;12.50;;;17.00;99.90;;;;;;5066907;28;20240;-79
2021/07/10 03:34:08;;;;;;;17.40;13.20;;;17.00;99.90;;;;;;5072863;28;20198;-79
2021/07/10 03:44:54;;;;;;;16.02;12.02;;;16.90;99.90;;;;;;5081850;28;20242;-80
2021/07/10 03:47:21;;;;;;;17.85;11.68;;;16.90;99.90;;;;;;5081664;28;20251;-80
2021/07/10 03:49:48;;;;;;;17.27;12.40;;;16.90;99.90;;;;;;5072481;28;20202;-80
2021/07/10 03:52:15;;;;;;;17.77;13.75;;;16.90;99.90;;;;;;5071837;28;20197;-79
2021/07/10 04:00:21;;;;;;;21.25;13.93;;;17.00;99.90;;;;;;5069847;28;20201;-79
2021/07/10 04:02:49;;;;;;;17.42;12.48;;;17.00;99.90;;;;;;5077704;28;20244;-79
2021/07/10 04:05:16;;;;;;;16.88;12.52;;;17.00;99.90;;;;;;5067623;28;20197;-79
2021/07/10 04:07:43;;;;;;;18.40;12.18;;;16.90;99.90;;;;;;5080049;28;20224;-79
2021/07/10 04:10:12;;;;;;;21.25;17.00;;;16.90;99.90;;;;;;5084521;28;20766;-78
2021/07/10 04:12:39;;;;;;;19.85;12.65;;;16.90;99.90;;;;;;5072796;28;20224;-78
2021/07/10 04:15:07;;;;;;;16.17;12.68;;;16.80;99.90;;;;;;5072571;28;20206;-78
2021/07/10 04:17:36;;;;;;;19.13;12.98;;;16.80;99.90;;;;;;5071178;28;20198;-78
2021/07/10 04:20:06;;;;;;;15.57;11.85;;;16.80;99.90;;;;;;5075335;28;20284;-78
2021/07/10 04:22:33;;;;;;;16.80;13.27;;;16.90;99.90;;;;;;5076094;28;20197;-78
2021/07/10 04:25:03;;;;;;;15.68;12.80;;;17.00;99.90;;;;;;5072565;28;20227;-77
2021/07/10 04:27:30;;;;;;;16.95;12.43;;;17.00;99.90;;;;;;5074071;28;20217;-77
2021/07/10 04:29:57;;;;;;;18.48;13.55;;;17.00;99.90;;;;;;5079032;28;20197;-78
2021/07/10 04:32:24;;;;;;;17.50;13.50;;;17.00;99.90;;;;;;5075674;28;20232;-77
2021/07/10 04:34:52;;;;;;;21.40;14.15;;;17.10;99.90;;;;;;5076919;28;20201;-78
2021/07/10 04:37:19;;;;;;;19.23;13.43;;;17.10;99.90;;;;;;5072308;28;20202;-77
2021/07/10 04:39:46;;;;;;;18.45;14.13;;;17.20;99.90;;;;;;5079847;28;20201;-77
2021/07/10 04:42:13;;;;;;;22.23;15.10;;;17.20;99.90;;;;;;5061483;28;20271;-77
2021/07/10 04:44:40;;;;;;;20.92;14.48;;;17.30;99.90;;;;;;5079002;28;20232;-78
2021/07/10 04:47:07;;;;;;;23.25;13.65;;;17.30;99.90;;;;;;5076847;28;20232;-78
2021/07/10 04:49:34;;;;;;;19.88;13.02;;;17.40;99.90;;;;;;5082359;28;20250;-77
2021/07/10 04:52:03;;;;;;;21.05;15.70;;;17.50;99.90;;;;;;5074697;28;20307;-77
2021/07/10 04:54:30;;;;;;;23.63;14.90;;;17.70;99.90;;;;;;5079875;28;20214;-77
2021/07/10 04:56:57;;;;;;;20.38;14.85;;;17.90;99.90;;;;;;5079695;28;20232;-78
2021/07/10 04:59:23;;;;;;;24.20;14.95;;;18.10;99.90;;;;;;5074097;28;20631;-77
2021/07/10 05:01:50;;;;;;;23.48;15.50;;;18.30;99.90;;;;;;5075360;28;20239;-77
2021/07/10 05:04:17;;;;;;;19.10;13.40;;;18.40;99.90;;;;;;5083891;28;20217;-77
2021/07/10 05:06:44;;;;;;;23.15;16.08;;;18.50;99.90;;;;;;5078066;28;20201;-78
2021/07/10 05:09:13;;;;;;;17.17;14.18;;;18.60;99.90;;;;;;5077849;28;20256;-77
2021/07/10 05:11:40;;;;;;;20.58;15.02;;;18.80;99.90;;;;;;5049577;28;20237;-77
2021/07/10 05:14:06;;;;;;;19.25;13.48;;;18.90;99.90;;;;;;5064702;28;20201;-78
2021/07/10 05:27:33;;;;;;;20.10;14.15;;;19.20;99.90;;;;;;5058978;28;20221;-79
2021/07/10 05:38:10;;;;;;;21.55;13.65;;;19.50;99.90;;;;;;5061422;28;20235;-80
2021/07/10 05:40:38;;;;;;;21.80;14.43;;;19.60;99.90;;;;;;5079461;28;20226;-79
2021/07/10 05:45:46;;;;;;;21.35;14.07;;;19.50;99.90;;;;;;5076816;28;20235;-79
2021/07/10 05:48:13;;;;;;;22.02;14.65;;;19.50;99.90;;;;;;5073835;28;20251;-78
2021/07/10 05:50:40;;;;;;;26.45;15.18;;;19.60;99.90;;;;;;5076649;28;20228;-78
2021/07/10 05:53:07;;;;;;;27.48;15.73;;;19.60;99.90;;;;;;5067539;28;20208;-77
2021/07/10 05:55:34;;;;;;;23.73;14.02;;;19.60;99.90;;;;;;5070332;28;20205;-77
2021/07/10 05:58:03;;;;;;;25.33;14.93;;;19.60;99.90;;;;;;5074123;28;20201;-77
2021/07/10 06:00:32;;;;;;;21.80;14.52;;;19.60;99.90;;;;;;5071604;28;20201;-78
2021/07/10 06:02:59;;;;;;;21.80;14.45;;;19.60;99.90;;;;;;5071255;28;20229;-78
2021/07/10 06:05:26;;;;;;;21.23;13.93;;;19.70;99.90;;;;;;5077361;28;20205;-78
2021/07/10 06:07:54;;;;;;;19.75;14.30;;;19.70;99.90;;;;;;5072336;28;20217;-78
2021/07/10 06:10:21;;;;;;;24.50;14.00;;;19.70;99.90;;;;;;5077298;28;20197;-78
2021/07/10 06:12:48;;;;;;;18.38;13.45;;;19.70;99.90;;;;;;5073474;28;20239;-78
2021/07/10 06:15:18;;;;;;;20.20;13.45;;;19.80;99.90;;;;;;5076430;28;20202;-78
2021/07/10 06:17:45;;;;;;;18.58;13.25;;;19.90;99.90;;;;;;5075371;28;20209;-79
2021/07/10 06:20:14;;;;;;;16.55;13.13;;;19.90;99.90;;;;;;5079237;28;20197;-78
2021/07/10 06:28:12;;;;;;;17.48;13.40;;;19.90;99.90;;;;;;5069411;28;20290;-78
2021/07/10 06:30:56;;;;;;;20.92;12.75;;;19.90;99.90;;;;;;5076523;28;20582;-78
2021/07/10 06:33:27;;;;;;;22.17;13.35;;;19.90;99.90;;;;;;5082934;28;20205;-80
2021/07/10 06:35:54;;;;;;;17.42;13.40;;;20.00;99.90;;;;;;5070344;28;20232;-78
2021/07/10 06:46:25;;;;;;;18.67;12.38;;;20.30;99.90;;;;;;5071023;28;20193;-79
2021/07/10 06:59:43;;;;;;;18.05;12.35;;;20.60;99.90;;;;;;5078198;28;20268;-78
2021/07/10 07:02:26;;;;;;;18.02;13.35;;;20.70;99.90;;;;;;5069088;28;20201;-79
2021/07/10 07:10:15;;;;;;;19.25;12.43;;;20.80;99.90;;;;;;5079047;28;20288;-78
2021/07/10 07:12:44;;;;;;;15.65;10.82;;;21.00;99.90;;;;;;5080180;28;20202;-79
2021/07/10 07:15:12;;;;;;;15.75;11.18;;;21.00;99.90;;;;;;5067684;28;20202;-79
2021/07/10 07:17:40;;;;;;;16.08;11.63;;;21.10;99.90;;;;;;5072672;28;20228;-78
2021/07/10 07:20:09;;;;;;;15.27;10.35;;;21.20;99.90;;;;;;5083166;28;20227;-79
2021/07/10 07:22:44;;;;;;;15.18;10.55;;;21.30;99.90;;;;;;5067845;28;20625;-79
2021/07/10 07:33:32;;;;;;;13.93;9.98;;;21.70;99.90;;;;;;5068774;28;20205;-79
2021/07/10 07:35:59;;;;;;;12.93;9.75;;;21.70;99.90;;;;;;5066372;28;20209;-78
2021/07/10 07:49:19;;;;;;;11.98;8.85;;;22.00;99.90;;;;;;5068338;28;20255;-79
2021/07/10 07:51:54;;;;;;;14.77;9.63;;;22.20;99.90;;;;;;5071353;28;20202;-78
2021/07/10 07:59:50;;;;;;;12.18;9.10;;;22.40;99.90;;;;;;5069130;28;20281;-79
2021/07/10 08:02:18;;;;;;;13.18;9.93;;;22.60;99.90;;;;;;5083113;28;20258;-79
2021/07/10 08:04:48;;;;;;;17.05;9.38;;;22.70;99.90;;;;;;5074271;28;20241;-79
2021/07/10 08:07:23;;;;;;;16.98;9.38;;;22.90;99.90;;;;;;5075146;28;20221;-78
2021/07/10 08:15:14;;;;;;;17.05;9.48;;;23.10;99.90;;;;;;5081357;28;20233;-76
2021/07/10 08:17:41;;;;;;;12.45;9.93;;;23.30;99.90;;;;;;5067408;28;20236;-77
2021/07/10 08:22:52;;;;;;;18.55;9.27;;;23.70;99.90;;;;;;5071633;28;20288;-76
2021/07/10 08:25:26;;;;;;;13.23;8.85;;;24.10;99.90;;;;;;5070902;28;20221;-76
2021/07/10 08:27:53;;;;;;;12.88;9.10;;;24.10;99.90;;;;;;5072779;28;20210;-76
2021/07/10 08:30:21;;;;;;;14.20;8.20;;;24.20;99.90;;;;;;5072959;28;20223;-77
2021/07/10 08:32:49;;;;;;;13.23;8.57;;;24.20;99.90;;;;;;5076070;28;20202;-76
2021/07/10 08:35:19;;;;;;;14.18;7.28;;;24.50;99.90;;;;;;5080642;28;20231;-77
2021/07/10 08:37:46;;;;;;;10.73;6.97;;;24.80;99.90;;;;;;5071170;28;20278;-80
2021/07/10 08:45:37;;;;;;;8.57;6.25;;;25.10;99.90;;;;;;5069457;28;20205;-79
2021/07/10 08:50:48;;;;;;;8.95;6.45;;;24.80;99.90;;;;;;5075638;28;20283;-79
2021/07/10 08:53:17;;;;;;;8.75;6.07;;;24.80;99.90;;;;;;5073541;28;20240;-79
2021/07/10 08:55:50;;;;;;;9.77;5.90;;;24.60;99.90;;;;;;5075478;28;20229;-79
2021/07/10 08:58:17;;;;;;;10.93;5.82;;;24.70;99.90;;;;;;5076257;28;20272;-79
2021/07/10 09:03:33;;;;;;;7.75;5.35;;;25.00;99.90;;;;;;5069564;28;20276;-79
2021/07/10 09:06:16;;;;;;;8.60;5.53;;;25.00;99.90;;;;;;5077615;28;20205;-79
2021/07/10 09:11:24;;;;;;;8.70;5.57;;;25.00;99.90;;;;;;5074235;28;20220;-80
2021/07/10 09:13:54;;;;;;;6.75;5.07;;;25.00;99.90;;;;;;5066818;28;20209;-80
2021/07/10 09:16:26;;;;;;;28.40;9.32;;;25.20;99.90;;;;;;5077424;28;20678;-79
2021/07/10 09:18:55;;;;;;;9.20;5.72;;;25.20;99.90;;;;;;5076657;28;20205;-79
2021/07/10 09:21:40;;;;;;;7.80;5.40;;;25.20;99.90;;;;;;5066822;28;20386;-79
2021/07/10 09:26:53;;;;;;;8.27;5.20;;;25.20;99.90;;;;;;5069112;28;20223;-79
2021/07/10 09:37:30;;;;;;;10.07;6.38;;;25.50;99.90;;;;;;5073733;28;20442;-80
2021/07/10 09:42:49;;;;;;;9.10;6.97;;;25.70;99.90;;;;;;5075585;28;20216;-79
2021/07/10 09:45:17;;;;;;;13.40;6.88;;;25.70;99.90;;;;;;5063720;28;20197;-79
2021/07/10 09:53:21;;;;;;;11.73;6.65;;;25.00;99.90;;;;;;5056835;28;20205;-80
2021/07/10 09:55:56;;;;;;;9.57;6.28;;;25.00;99.90;;;;;;5068527;28;20206;-79
2021/07/10 09:58:33;;;;;;;13.65;6.80;;;25.10;99.90;;;;;;5060196;28;20290;-79
2021/07/10 10:11:21;;;;;;;8.70;7.15;;;25.10;99.90;;;;;;5065396;28;20201;-78
2021/07/10 10:19:14;;;;;;;5.43;4.95;;;25.30;99.90;;;;;;5065986;28;20201;-78
2021/07/10 10:29:54;;;;;;;9.18;6.05;;;25.40;99.90;;;;;;5069362;28;20202;-78
2021/07/10 10:32:22;;;;;;;6.63;5.25;;;25.20;99.90;;;;;;5074147;28;20204;-78
2021/07/10 10:37:31;;;;;;;10.60;5.88;;;25.10;99.90;;;;;;5072013;28;20268;-78
2021/07/10 10:40:00;;;;;;;8.52;6.20;;;25.00;99.90;;;;;;5076213;28;20209;-78
2021/07/10 10:45:09;;;;;;;8.30;6.05;;;25.20;99.90;;;;;;5081531;28;20208;-80
2021/07/10 10:47:41;;;;;;;9.15;5.82;;;25.20;99.90;;;;;;5071432;28;20235;-79
2021/07/10 10:50:18;;;;;;;12.07;6.50;;;25.20;99.90;;;;;;5072069;28;20288;-79
2021/07/10 10:52:45;;;;;;;8.10;6.00;;;25.20;99.90;;;;;;5083503;28;20235;-79
2021/07/10 11:00:45;;;;;;;8.57;7.03;;;25.00;99.90;;;;;;5073423;28;20213;-79
2021/07/10 11:03:13;;;;;;;8.55;6.22;;;25.10;99.90;;;;;;5069695;28;20237;-80
2021/07/10 11:05:55;;;;;;;10.30;6.45;;;25.10;99.90;;;;;;5075083;28;20239;-80
2021/07/10 11:08:30;;;;;;;12.63;5.97;;;25.30;99.90;;;;;;5065236;28;20240;-79
2021/07/10 11:14:19;;;;;;;8.68;6.25;;;25.50;99.90;;;;;;5067842;28;20209;-79
2021/07/10 11:19:56;;;;;;;8.88;6.03;;;25.70;99.90;;;;;;5059649;28;20556;-79
2021/07/10 11:23:02;;;;;;;17.27;6.07;;;25.70;99.90;;;;;;5059696;28;20205;-79
2021/07/10 11:26:14;;;;;;;7.00;5.45;;;25.60;99.90;;;;;;5066790;28;20201;-79
2021/07/10 11:28:58;;;;;;;11.68;6.32;;;25.60;99.90;;;;;;5056849;28;20209;-79
2021/07/10 11:31:32;;;;;;;10.00;6.20;;;25.60;99.90;;;;;;5055948;28;20212;-79
2021/07/10 11:34:09;;;;;;;6.38;5.55;;;25.60;99.90;;;;;;5051880;28;20288;-79
2021/07/10 11:36:56;;;;;;;8.90;5.15;;;25.50;99.90;;;;;;5061439;28;20266;-79
2021/07/10 11:39:57;;;;;;;6.53;5.47;;;25.50;99.90;;;;;;5063882;28;20234;-78
2021/07/10 11:42:49;;;;;;;8.85;5.57;;;25.50;99.90;;;;;;5057746;28;20198;-78
2021/07/10 11:45:32;;;;;;;8.40;5.03;;;25.50;99.90;;;;;;5060615;28;20202;-78
2021/07/10 11:48:15;;;;;;;9.82;6.05;;;25.70;99.90;;;;;;5056710;28;20206;-78
2021/07/10 11:50:43;;;;;;;8.98;6.20;;;25.60;99.90;;;;;;5062461;28;20259;-78
2021/07/10 11:53:12;;;;;;;8.40;5.85;;;25.50;99.90;;;;;;5058825;28;20206;-78
2021/07/10 11:55:41;;;;;;;6.07;5.03;;;25.50;99.90;;;;;;5056876;28;20286;-79
2021/07/10 12:01:07;;;;;;;5.18;4.10;;;25.50;99.90;;;;;;5058679;28;20210;-79
2021/07/10 12:03:43;;;;;;;6.10;4.63;;;25.50;99.90;;;;;;5063464;28;20298;-79
2021/07/10 12:09:00;;;;;;;7.15;3.92;;;25.80;99.90;;;;;;5064818;28;20269;-79
2021/07/10 12:16:59;;;;;;;5.63;4.38;;;25.70;99.90;;;;;;5069549;28;20262;-80
2021/07/10 12:24:50;;;;;;;5.70;5.07;;;25.80;99.90;;;;;;5052783;28;20245;-75
2021/07/10 12:27:18;;;;;;;7.75;4.97;;;25.70;99.90;;;;;;5052263;28;20735;-75
2021/07/10 12:29:51;;;;;;;5.28;4.43;;;25.70;99.90;;;;;;5048387;28;20280;-75
2021/07/10 12:32:34;;;;;;;8.30;5.47;;;25.80;99.90;;;;;;5054484;28;20289;-75
2021/07/10 12:35:03;;;;;;;5.97;4.85;;;26.00;99.90;;;;;;5064769;28;20209;-75
2021/07/10 12:37:31;;;;;;;5.82;5.22;;;26.10;99.90;;;;;;5053674;28;20202;-74
2021/07/10 12:40:06;;;;;;;11.23;5.10;;;26.00;99.90;;;;;;5058512;28;20252;-74
2021/07/10 12:42:33;;;;;;;10.40;5.95;;;26.00;99.90;;;;;;5057315;28;20197;-75
2021/07/10 12:44:59;;;;;;;6.72;5.63;;;25.90;99.90;;;;;;5054264;28;20229;-76
2021/07/10 12:47:28;;;;;;;7.00;5.57;;;25.90;99.90;;;;;;5055461;28;20558;-74
2021/07/10 12:49:58;;;;;;;6.75;5.72;;;26.00;99.90;;;;;;5055957;28;20269;-75
2021/07/10 12:52:28;;;;;;;7.53;5.28;;;26.10;99.90;;;;;;5061097;28;20194;-75
2021/07/10 12:57:37;;;;;;;6.70;5.47;;;26.10;99.90;;;;;;5055352;28;20206;-76
2021/07/10 13:00:14;;;;;;;8.00;6.78;;;26.10;99.90;;;;;;5064157;28;20223;-76
2021/07/10 13:02:47;;;;;;;7.15;6.45;;;26.10;99.90;;;;;;5052287;28;20206;-76
2021/07/10 13:05:30;;;;;;;9.15;6.70;;;26.00;99.90;;;;;;5047223;28;20230;-76
2021/07/10 13:08:09;;;;;;;10.77;5.85;;;25.90;99.90;;;;;;5053063;28;20232;-76
2021/07/10 13:10:38;;;;;;;8.07;6.15;;;25.80;99.90;;;;;;5050830;28;20252;-76
2021/07/10 13:13:12;;;;;;;9.77;5.95;;;25.70;99.90;;;;;;5050088;28;20202;-76
2021/07/10 13:15:44;;;;;;;7.75;5.80;;;25.50;99.90;;;;;;5052912;28;20256;-76
2021/07/10 13:18:15;;;;;;;7.93;5.97;;;25.30;99.90;;;;;;5046918;28;20217;-76
2021/07/10 13:20:46;;;;;;;7.10;4.82;;;25.30;99.90;;;;;;5060315;28;20201;-77
2021/07/10 13:23:30;;;;;;;8.63;5.57;;;25.30;99.90;;;;;;5064998;28;20292;-76
2021/07/10 13:25:57;;;;;;;7.85;5.60;;;25.20;99.90;;;;;;5045834;28;20202;-76
2021/07/10 13:28:27;;;;;;;7.47;5.25;;;24.80;99.90;;;;;;5065452;28;20206;-76
2021/07/10 13:30:55;;;;;;;6.07;5.00;;;24.70;99.90;;;;;;5052334;28;20237;-76
2021/07/10 13:33:29;;;;;;;6.50;5.22;;;24.80;99.90;;;;;;5062967;28;20204;-76
2021/07/10 13:39:01;;;;;;;5.47;4.93;;;24.60;99.90;;;;;;5053774;28;20205;-76
2021/07/10 13:41:30;;;;;;;8.00;5.47;;;24.50;99.90;;;;;;5057483;28;20199;-76
2021/07/10 13:44:03;;;;;;;10.80;7.97;;;24.60;99.90;;;;;;5049591;28;20260;-76
2021/07/10 13:46:32;;;;;;;8.07;5.50;;;24.50;99.90;;;;;;5049682;28;20621;-76
2021/07/10 13:48:59;;;;;;;5.85;5.25;;;24.50;99.90;;;;;;5060065;28;20260;-76
2021/07/10 13:51:28;;;;;;;7.72;5.43;;;24.60;99.90;;;;;;5052458;28;20195;-76
2021/07/10 13:53:55;;;;;;;8.45;5.70;;;24.60;99.90;;;;;;5061068;28;20642;-76
2021/07/10 13:56:22;;;;;;;11.18;6.10;;;24.80;99.90;;;;;;5047507;28;20554;-76
2021/07/10 13:59:00;;;;;;;8.90;5.60;;;24.90;99.90;;;;;;5056259;28;20221;-76
2021/07/10 14:01:27;;;;;;;7.93;5.05;;;24.90;99.90;;;;;;5052244;28;20198;-76
2021/07/10 14:03:54;;;;;;;17.33;10.57;;;24.80;99.90;;;;;;5047073;28;20241;-76
2021/07/10 14:06:21;;;;;;;11.43;7.18;;;24.90;99.90;;;;;;5051910;28;20197;-76
2021/07/10 14:08:50;;;;;;;10.75;9.25;;;25.00;99.90;;;;;;5058858;28;20224;-76
2021/07/10 14:11:17;;;;;;;7.22;6.43;;;25.00;99.90;;;;;;5061396;28;20252;-76
2021/07/10 14:13:44;;;;;;;9.93;6.80;;;25.00;99.90;;;;;;5045581;28;20206;-76
2021/07/10 14:16:11;;;;;;;6.07;4.90;;;24.80;99.90;;;;;;5052476;28;20237;-76
2021/07/10 14:18:38;;;;;;;7.18;6.07;;;24.80;99.90;;;;;;5050114;28;20204;-76
2021/07/10 14:21:05;;;;;;;7.30;5.43;;;24.80;99.90;;;;;;5058217;28;20202;-76
2021/07/10 14:23:34;;;;;;;8.57;5.88;;;24.60;99.90;;;;;;5064270;28;20587;-76
2021/07/10 14:26:03;;;;;;;11.20;4.75;;;24.80;99.90;;;;;;5050811;28;20279;-76
2021/07/10 14:28:30;;;;;;;8.80;5.93;;;25.00;99.90;;;;;;5052938;28;20231;-75
2021/07/10 14:30:59;;;;;;;8.05;5.65;;;25.00;99.90;;;;;;5050981;28;20264;-76
2021/07/10 14:33:26;;;;;;;10.95;5.97;;;25.00;99.90;;;;;;5055064;28;20203;-76
2021/07/10 14:35:53;;;;;;;7.43;6.18;;;24.80;99.90;;;;;;5065831;28;20254;-76
2021/07/10 14:38:20;;;;;;;6.70;6.07;;;24.60;99.90;;;;;;5058327;28;20317;-76
2021/07/10 14:40:47;;;;;;;10.95;5.65;;;24.70;99.90;;;;;;5059377;28;20202;-76
2021/07/10 14:43:16;;;;;;;7.03;6.00;;;24.60;99.90;;;;;;5055362;28;20193;-76
2021/07/10 14:45:43;;;;;;;7.95;4.78;;;24.60;99.90;;;;;;5058261;28;20230;-76
2021/07/10 14:48:11;;;;;;;4.50;4.10;;;24.60;99.90;;;;;;5058805;28;20256;-76
2021/07/10 14:50:39;;;;;;;5.20;4.70;;;24.80;99.90;;;;;;5048552;28;20236;-76
2021/07/10 14:53:06;;;;;;;5.22;4.72;;;24.90;99.90;;;;;;5055850;28;20194;-76
2021/07/10 14:55:37;;;;;;;7.38;5.32;;;25.00;99.90;;;;;;5055365;28;20276;-76
2021/07/10 14:58:05;;;;;;;7.60;5.20;;;25.20;99.90;;;;;;5049556;28;20203;-76
2021/07/10 15:00:33;;;;;;;6.80;4.90;;;25.20;99.90;;;;;;5055705;28;20273;-76
2021/07/10 15:03:00;;;;;;;5.82;5.28;;;25.30;99.90;;;;;;5063459;28;20253;-76
2021/07/10 15:05:28;;;;;;;8.00;5.10;;;25.30;99.90;;;;;;5058972;28;20228;-76
2021/07/10 15:07:56;;;;;;;6.88;5.47;;;25.20;99.90;;;;;;5051053;28;20202;-76
2021/07/10 15:10:24;;;;;;;7.32;4.95;;;25.20;99.90;;;;;;5059964;28;20740;-76
2021/07/10 15:12:51;;;;;;;6.65;4.70;;;25.30;99.90;;;;;;5072756;28;20263;-76
2021/07/10 15:15:19;;;;;;;5.07;4.47;;;25.30;99.90;;;;;;5074114;28;20273;-76
2021/07/10 15:18:02;;;;;;;9.25;3.75;;;25.40;99.90;;;;;;5072771;28;20202;-76
2021/07/10 15:20:29;;;;;;;4.25;3.88;;;25.40;99.90;;;;;;5069638;28;20206;-76
2021/07/10 15:22:56;;;;;;;4.25;3.85;;;25.50;99.90;;;;;;5071844;28;20224;-77
2021/07/10 15:25:26;;;;;;;4.10;3.70;;;25.60;99.90;;;;;;5064220;28;20233;-76
2021/07/10 15:27:55;;;;;;;4.63;4.13;;;25.60;99.90;;;;;;5062023;28;20206;-76
2021/07/10 15:30:23;;;;;;;7.45;4.00;;;25.60;99.90;;;;;;5071690;28;20201;-77
2021/07/10 15:32:51;;;;;;;6.03;3.97;;;25.70;99.90;;;;;;5062987;28;20242;-77
2021/07/10 15:35:22;;;;;;;4.90;4.32;;;25.80;99.90;;;;;;5060550;28;20206;-77
2021/07/10 15:37:54;;;;;;;4.10;3.72;;;25.80;99.90;;;;;;5056024;28;20202;-77
2021/07/10 15:40:22;;;;;;;6.80;3.40;;;25.80;99.90;;;;;;5058486;28;20224;-77
2021/07/10 15:42:50;;;;;;;5.18;4.38;;;25.80;99.90;;;;;;5057206;28;20212;-77
2021/07/10 15:45:18;;;;;;;7.18;4.40;;;25.80;99.90;;;;;;5060716;28;20222;-78
2021/07/10 15:47:47;;;;;;;8.80;4.03;;;25.70;99.90;;;;;;5066424;28;20197;-77
2021/07/10 15:50:17;;;;;;;6.35;3.60;;;25.60;99.90;;;;;;5057615;28;20206;-77
2021/07/10 15:52:46;;;;;;;4.80;4.00;;;25.60;99.90;;;;;;5054741;28;20214;-77
2021/07/10 15:55:15;;;;;;;4.45;4.05;;;25.40;99.90;;;;;;5062945;28;20201;-77
2021/07/10 15:57:43;;;;;;;4.70;4.30;;;25.30;99.90;;;;;;5061532;28;20201;-77
2021/07/10 16:00:12;;;;;;;4.28;3.97;;;25.40;99.90;;;;;;5051908;28;21086;-77
2021/07/10 16:02:40;;;;;;;9.85;4.47;;;25.40;99.90;;;;;;5057761;28;20205;-77
2021/07/10 16:05:08;;;;;;;4.65;4.25;;;25.50;99.90;;;;;;5053958;28;20222;-77
2021/07/10 16:07:37;;;;;;;4.00;3.60;;;25.50;99.90;;;;;;5059429;28;20666;-77
2021/07/10 16:10:07;;;;;;;5.38;4.13;;;25.60;99.90;;;;;;5050599;28;20206;-77
2021/07/10 16:12:34;;;;;;;8.25;4.13;;;25.60;99.90;;;;;;5058776;28;20205;-76
2021/07/10 16:15:01;;;;;;;5.05;4.60;;;25.70;99.90;;;;;;5063446;28;20203;-77
2021/07/10 16:17:28;;;;;;;3.97;3.60;;;25.70;99.90;;;;;;5060876;28;20201;-77
2021/07/10 16:19:55;;;;;;;4.10;3.70;;;25.70;99.90;;;;;;5055639;28;20201;-77
2021/07/10 16:22:22;;;;;;;4.13;3.72;;;25.70;99.90;;;;;;5055105;28;20205;-77
2021/07/10 16:24:49;;;;;;;4.70;4.22;;;25.70;99.90;;;;;;5058141;28;20287;-77
2021/07/10 16:27:17;;;;;;;4.10;3.75;;;25.70;99.90;;;;;;5057981;28;20293;-77
2021/07/10 16:29:46;;;;;;;5.18;4.03;;;25.60;99.90;;;;;;5056969;28;20232;-77
2021/07/10 16:32:15;;;;;;;5.03;3.72;;;25.50;99.90;;;;;;5053925;28;20195;-76
2021/07/10 16:34:43;;;;;;;5.10;4.70;;;25.40;99.90;;;;;;5051601;28;20202;-77
2021/07/10 16:37:11;;;;;;;7.68;4.95;;;25.30;99.90;;;;;;5048377;28;20202;-77
2021/07/10 16:39:38;;;;;;;5.45;4.50;;;25.30;99.90;;;;;;5057107;28;20210;-77
2021/07/10 16:42:07;;;;;;;5.25;4.75;;;25.20;99.90;;;;;;5062498;28;20259;-77
2021/07/10 16:44:35;;;;;;;13.50;3.90;;;25.00;99.90;;;;;;5049041;28;20234;-77
2021/07/10 16:47:03;;;;;;;4.45;3.95;;;25.00;99.90;;;;;;5062127;28;20268;-77
2021/07/10 16:52:19;;;;;;;4.75;4.25;;;25.10;99.90;;;;;;5054670;28;20217;-77
2021/07/10 16:54:45;;;;;;;27.13;15.90;;;25.10;99.90;;;;;;5050428;28;20210;-76
2021/07/10 16:57:13;;;;;;;60.45;33.03;;;25.10;99.90;;;;;;5060303;28;20206;-77
2021/07/10 16:59:41;;;;;;;61.55;33.75;;;24.90;99.90;;;;;;5059043;28;20205;-77
2021/07/10 17:02:09;;;;;;;11.93;6.53;;;24.80;99.90;;;;;;5062740;28;20596;-77
2021/07/10 17:04:37;;;;;;;7.60;5.00;;;24.90;99.90;;;;;;5059035;28;20271;-77
2021/07/10 17:07:04;;;;;;;5.13;4.40;;;24.90;99.90;;;;;;5062575;28;20202;-77